Time;durP1;ratioP1;P1;durP2;ratioP2;P2;SDS_P1;SDS_P2;PMS_P1;PMS_P2;Temp;Humidity;BMP_temperature;BMP_pressure;BME280_temperature;BME280_humidity;BME280_pressure;Samples;Min_cycle;Max_cycle;Signal;HPM_P1;HPM_P2
2022/01/07 00:00:50;;;;;;;75.73;71.83;;;2.90;99.90;;;;;;5080977;28;20469;-83
2022/01/07 00:03:18;;;;;;;78.77;75.03;;;2.90;99.90;;;;;;5080750;28;20446;-83
2022/01/07 00:05:45;;;;;;;81.40;77.80;;;2.90;99.90;;;;;;5081509;28;20474;-83
2022/01/07 00:08:12;;;;;;;91.80;87.13;;;2.80;99.90;;;;;;5080546;28;20450;-83
2022/01/07 00:10:39;;;;;;;93.30;88.90;;;2.80;99.90;;;;;;5081301;28;20512;-83
2022/01/07 00:13:05;;;;;;;104.73;99.93;;;2.80;99.90;;;;;;5080556;28;20474;-83
2022/01/07 00:15:34;;;;;;;82.40;78.93;;;2.80;99.90;;;;;;5081600;28;20470;-83
2022/01/07 00:18:01;;;;;;;65.73;62.23;;;2.80;99.90;;;;;;5080650;28;20459;-83
2022/01/07 00:20:28;;;;;;;73.83;69.87;;;2.80;99.90;;;;;;5080932;28;20823;-83
2022/01/07 00:22:56;;;;;;;65.37;62.33;;;2.90;99.90;;;;;;5081470;28;20450;-83
2022/01/07 00:25:23;;;;;;;54.60;51.70;;;2.90;99.90;;;;;;5080792;28;21005;-85
2022/01/07 00:27:51;;;;;;;39.43;37.03;;;2.90;99.90;;;;;;5080971;28;20486;-83
2022/01/07 00:30:20;;;;;;;56.20;53.13;;;2.90;99.90;;;;;;5081015;28;20454;-83
2022/01/07 00:32:48;;;;;;;39.67;37.50;;;2.90;99.90;;;;;;5080906;28;20475;-83
2022/01/07 00:35:18;;;;;;;47.10;43.80;;;3.00;99.90;;;;;;5080665;28;20474;-83
2022/01/07 00:37:45;;;;;;;39.23;36.60;;;3.10;99.70;;;;;;5080905;28;20463;-83
2022/01/07 00:40:15;;;;;;;33.23;31.07;;;3.10;99.20;;;;;;5081272;28;20462;-82
2022/01/07 00:42:42;;;;;;;25.17;23.37;;;3.20;99.30;;;;;;5081650;28;20446;-83
2022/01/07 00:45:10;;;;;;;45.07;42.27;;;3.20;98.00;;;;;;5080859;28;20494;-83
2022/01/07 00:47:37;;;;;;;21.30;19.80;;;3.40;97.50;;;;;;5081353;28;20469;-83
2022/01/07 00:50:07;;;;;;;22.37;20.67;;;3.30;97.50;;;;;;5081441;28;20450;-83
2022/01/07 00:52:34;;;;;;;21.73;19.43;;;3.30;98.30;;;;;;5081854;28;20475;-84
2022/01/07 00:55:01;;;;;;;26.43;24.63;;;3.30;98.10;;;;;;5080180;28;20474;-83
2022/01/07 00:57:28;;;;;;;20.93;19.43;;;3.40;97.50;;;;;;5081808;28;20546;-83
2022/01/07 00:59:55;;;;;;;24.13;20.63;;;3.30;97.50;;;;;;5080750;28;20442;-83
2022/01/07 01:02:22;;;;;;;16.60;15.10;;;3.30;98.20;;;;;;5081671;28;20461;-83
2022/01/07 01:04:48;;;;;;;16.03;14.50;;;3.40;97.10;;;;;;5082115;28;20947;-83
2022/01/07 01:07:17;;;;;;;16.73;15.20;;;3.40;97.30;;;;;;5081842;28;20454;-83
2022/01/07 01:09:44;;;;;;;20.00;17.57;;;3.40;97.70;;;;;;5081385;28;20455;-83
2022/01/07 01:12:13;;;;;;;19.13;17.17;;;3.30;97.90;;;;;;5082067;28;20854;-84
2022/01/07 01:14:40;;;;;;;17.33;15.47;;;3.30;98.40;;;;;;5081413;28;20474;-84
2022/01/07 01:17:07;;;;;;;11.40;10.30;;;3.20;97.50;;;;;;5081704;28;20462;-83
2022/01/07 01:19:34;;;;;;;15.83;14.60;;;3.30;97.00;;;;;;5081143;28;20446;-83
2022/01/07 01:22:01;;;;;;;19.10;13.40;;;3.30;97.30;;;;;;5081002;28;20457;-84
2022/01/07 01:24:29;;;;;;;15.67;13.57;;;3.40;97.00;;;;;;5081025;28;20471;-84
2022/01/07 01:26:56;;;;;;;15.90;12.00;;;3.40;97.50;;;;;;5081584;28;20455;-83
2022/01/07 01:29:23;;;;;;;16.50;10.70;;;3.40;97.20;;;;;;5080884;28;20458;-83
2022/01/07 01:31:51;;;;;;;14.10;12.80;;;3.40;97.70;;;;;;5081608;28;20470;-83
2022/01/07 01:34:17;;;;;;;15.50;14.20;;;3.30;97.90;;;;;;5081708;28;20481;-83
2022/01/07 01:36:44;;;;;;;20.20;18.70;;;3.30;97.20;;;;;;5081569;28;20447;-83
2022/01/07 01:39:12;;;;;;;19.37;17.47;;;3.30;97.60;;;;;;5081119;28;20466;-84
2022/01/07 01:41:41;;;;;;;20.67;15.47;;;3.30;97.50;;;;;;5081968;28;20522;-84
2022/01/07 01:44:08;;;;;;;16.10;14.90;;;3.30;97.40;;;;;;5081128;28;20457;-84
2022/01/07 01:46:35;;;;;;;18.10;16.50;;;3.40;97.30;;;;;;5080588;28;20451;-83
2022/01/07 01:49:03;;;;;;;17.30;15.80;;;3.30;97.50;;;;;;5079792;28;20461;-84
2022/01/07 01:51:30;;;;;;;14.80;13.43;;;3.30;97.20;;;;;;5080901;28;20489;-83
2022/01/07 01:53:57;;;;;;;18.53;15.37;;;3.30;97.20;;;;;;5080291;28;20456;-83
2022/01/07 01:56:24;;;;;;;19.30;15.23;;;3.30;97.20;;;;;;5080620;28;20465;-85
2022/01/07 01:58:52;;;;;;;15.47;13.73;;;3.30;97.20;;;;;;5080386;28;20455;-83
2022/01/07 02:01:19;;;;;;;16.63;15.17;;;3.30;97.40;;;;;;5081289;28;20458;-83
2022/01/07 02:03:46;;;;;;;15.50;14.20;;;3.40;96.90;;;;;;5080542;28;20458;-83
2022/01/07 02:06:12;;;;;;;24.83;14.60;;;3.40;97.00;;;;;;5079111;28;21014;-84
2022/01/07 02:08:39;;;;;;;20.47;18.90;;;3.40;97.70;;;;;;5078718;28;20820;-83
2022/01/07 02:11:06;;;;;;;17.30;15.43;;;3.40;97.90;;;;;;5078552;28;20966;-83
2022/01/07 02:13:33;;;;;;;16.17;14.63;;;3.30;97.40;;;;;;5078196;28;20485;-83
2022/01/07 02:16:01;;;;;;;21.47;18.47;;;3.40;97.60;;;;;;5077908;28;20484;-83
2022/01/07 02:18:28;;;;;;;25.70;23.57;;;3.30;98.40;;;;;;5076863;28;20461;-83
2022/01/07 02:20:56;;;;;;;24.73;22.67;;;3.30;98.60;;;;;;5076587;28;20465;-83
2022/01/07 02:23:23;;;;;;;20.97;19.07;;;3.20;98.50;;;;;;5076394;28;20443;-83
2022/01/07 02:25:50;;;;;;;27.57;24.70;;;3.30;97.70;;;;;;5076250;28;20474;-82
2022/01/07 02:28:17;;;;;;;33.27;30.70;;;3.30;98.50;;;;;;5075489;28;20458;-82
2022/01/07 02:30:44;;;;;;;24.60;22.70;;;3.30;98.80;;;;;;5074973;28;20455;-82
2022/01/07 02:33:11;;;;;;;31.03;28.83;;;3.30;98.50;;;;;;5075461;28;20474;-82
2022/01/07 02:35:38;;;;;;;33.90;31.90;;;3.30;98.90;;;;;;5075606;28;20848;-83
2022/01/07 02:38:06;;;;;;;23.43;21.57;;;3.30;99.50;;;;;;5076963;28;20549;-82
2022/01/07 02:40:34;;;;;;;24.57;23.27;;;3.40;98.00;;;;;;5076571;28;20478;-83
2022/01/07 02:43:01;;;;;;;21.63;20.03;;;3.30;98.70;;;;;;5076450;28;20473;-84
2022/01/07 02:45:27;;;;;;;19.10;17.73;;;3.30;98.20;;;;;;5076552;28;20482;-83
2022/01/07 02:47:55;;;;;;;25.60;22.17;;;3.30;98.20;;;;;;5077164;28;20454;-82
2022/01/07 02:50:24;;;;;;;26.33;24.73;;;3.30;98.70;;;;;;5076938;28;20457;-83
2022/01/07 02:52:51;;;;;;;27.70;25.97;;;3.20;99.40;;;;;;5077054;28;20520;-83
2022/01/07 02:55:21;;;;;;;30.70;28.70;;;3.30;99.10;;;;;;5076689;28;20857;-83
2022/01/07 02:57:48;;;;;;;45.50;43.27;;;3.20;99.40;;;;;;5076730;28;20476;-83
2022/01/07 03:00:17;;;;;;;54.73;52.33;;;3.20;99.90;;;;;;5076911;28;20455;-84
2022/01/07 03:02:44;;;;;;;101.03;96.73;;;3.10;99.90;;;;;;5078145;28;20481;-84
2022/01/07 03:05:12;;;;;;;107.50;103.20;;;3.10;99.90;;;;;;5078530;28;20564;-84
2022/01/07 03:07:40;;;;;;;160.23;154.23;;;3.10;99.90;;;;;;5078690;28;20456;-83
2022/01/07 03:10:08;;;;;;;218.00;209.40;;;3.10;99.90;;;;;;5077957;28;20489;-84
2022/01/07 03:12:37;;;;;;;235.97;227.50;;;3.10;99.90;;;;;;5078342;28;20551;-84
2022/01/07 03:15:05;;;;;;;290.73;280.77;;;3.00;99.90;;;;;;5077842;28;20481;-84
2022/01/07 03:17:32;;;;;;;356.20;343.30;;;3.10;99.90;;;;;;5078191;28;20970;-84
2022/01/07 03:19:58;;;;;;;371.47;357.47;;;2.90;99.90;;;;;;5076502;28;20452;-83
2022/01/07 03:22:26;;;;;;;387.67;373.40;;;3.00;99.90;;;;;;5078080;28;20596;-84
2022/01/07 03:24:52;;;;;;;378.63;364.77;;;3.00;99.90;;;;;;5078858;28;20478;-84
2022/01/07 03:27:19;;;;;;;422.87;407.07;;;3.00;99.90;;;;;;5078166;28;20446;-84
2022/01/07 03:29:47;;;;;;;421.80;406.40;;;2.80;99.90;;;;;;5077276;28;20544;-83
2022/01/07 03:32:14;;;;;;;428.90;412.70;;;2.90;99.90;;;;;;5077700;28;20450;-84
2022/01/07 03:34:41;;;;;;;461.27;443.33;;;2.80;99.90;;;;;;5077175;28;20474;-83
2022/01/07 03:37:08;;;;;;;409.73;394.10;;;2.80;99.90;;;;;;5077127;28;20454;-83
2022/01/07 03:39:35;;;;;;;498.13;478.00;;;2.80;99.90;;;;;;5076874;28;20473;-83
2022/01/07 03:42:02;;;;;;;530.33;508.07;;;2.80;99.90;;;;;;5077631;28;20461;-83
2022/01/07 03:44:29;;;;;;;584.00;558.63;;;2.70;99.90;;;;;;5077445;28;20470;-84
2022/01/07 03:46:57;;;;;;;612.00;583.83;;;2.80;99.90;;;;;;5076406;28;20454;-84
2022/01/07 03:49:23;;;;;;;608.57;581.07;;;2.70;99.90;;;;;;5076367;28;20454;-83
2022/01/07 03:51:50;;;;;;;599.83;572.93;;;2.70;99.90;;;;;;5079105;28;20457;-83
2022/01/07 03:54:17;;;;;;;632.30;602.10;;;2.70;99.90;;;;;;5078597;28;20482;-84
2022/01/07 03:56:44;;;;;;;627.60;598.13;;;2.70;99.90;;;;;;5078979;28;20453;-83
2022/01/07 03:59:11;;;;;;;614.23;586.03;;;2.70;99.90;;;;;;5078240;28;20449;-83
2022/01/07 04:01:37;;;;;;;493.60;474.07;;;2.70;99.90;;;;;;5078096;28;20457;-85
2022/01/07 04:04:06;;;;;;;403.17;388.17;;;2.80;99.90;;;;;;5078649;28;20454;-85
2022/01/07 04:06:33;;;;;;;269.17;259.87;;;2.90;99.90;;;;;;5078663;28;20939;-83
2022/01/07 04:08:59;;;;;;;194.93;188.23;;;3.10;99.90;;;;;;5078772;28;20451;-83
2022/01/07 04:11:26;;;;;;;112.87;108.43;;;3.10;99.90;;;;;;5078749;28;20442;-83
2022/01/07 04:13:53;;;;;;;93.47;90.07;;;3.30;99.90;;;;;;5076669;28;20466;-83
2022/01/07 04:16:20;;;;;;;69.07;65.93;;;3.50;98.60;;;;;;5077190;28;20451;-83
2022/01/07 04:18:46;;;;;;;57.37;54.73;;;3.60;96.80;;;;;;5077260;28;20844;-84
2022/01/07 04:21:14;;;;;;;54.17;51.70;;;3.70;96.80;;;;;;5076949;28;20458;-83
2022/01/07 04:23:41;;;;;;;29.90;28.37;;;3.60;96.60;;;;;;5077946;28;20450;-83
2022/01/07 04:26:08;;;;;;;35.83;33.93;;;3.80;96.90;;;;;;5077612;28;20474;-83
2022/01/07 04:28:35;;;;;;;17.47;16.20;;;3.70;97.20;;;;;;5077500;28;20458;-83
2022/01/07 04:31:01;;;;;;;22.57;20.70;;;3.70;96.30;;;;;;5079277;28;20461;-84
2022/01/07 04:33:32;;;;;;;22.90;21.13;;;3.70;96.50;;;;;;5081851;28;21176;-83
2022/01/07 04:35:58;;;;;;;27.03;25.10;;;3.60;96.50;;;;;;5081907;28;20520;-84
2022/01/07 04:38:27;;;;;;;21.23;19.40;;;3.60;97.20;;;;;;5081626;28;20458;-83
2022/01/07 04:40:54;;;;;;;23.87;22.20;;;3.60;97.10;;;;;;5081380;28;20438;-84
2022/01/07 04:43:21;;;;;;;36.27;34.30;;;3.60;97.50;;;;;;5080702;28;20541;-84
2022/01/07 04:45:48;;;;;;;37.00;34.80;;;3.60;99.10;;;;;;5081527;28;20470;-84
2022/01/07 04:48:15;;;;;;;52.23;49.23;;;3.60;98.40;;;;;;5080292;28;20450;-85
2022/01/07 04:50:42;;;;;;;56.87;54.00;;;3.60;99.70;;;;;;5079871;28;20446;-84
2022/01/07 04:53:12;;;;;;;61.67;58.73;;;3.40;99.90;;;;;;5079744;28;20474;-84
2022/01/07 04:55:43;;;;;;;53.53;50.13;;;3.50;99.90;;;;;;5079792;28;20504;-84
2022/01/07 04:58:12;;;;;;;44.83;42.50;;;3.60;99.90;;;;;;5080040;28;20850;-84
2022/01/07 05:00:39;;;;;;;34.37;31.83;;;3.40;99.60;;;;;;5080311;28;20550;-84
2022/01/07 05:03:06;;;;;;;34.57;32.17;;;3.50;99.00;;;;;;5080719;28;20446;-84
2022/01/07 05:05:33;;;;;;;31.53;29.47;;;3.60;98.50;;;;;;5080544;28;20474;-84
2022/01/07 05:08:00;;;;;;;46.33;43.80;;;3.60;98.50;;;;;;5080002;28;20454;-84
2022/01/07 05:10:27;;;;;;;50.47;48.17;;;3.60;99.30;;;;;;5080593;28;20934;-84
2022/01/07 05:12:56;;;;;;;88.07;84.13;;;3.60;99.90;;;;;;5080011;28;20553;-83
2022/01/07 05:15:23;;;;;;;81.00;77.97;;;3.50;99.90;;;;;;5081012;28;20532;-83
2022/01/07 05:17:51;;;;;;;78.37;75.37;;;3.70;99.90;;;;;;5080732;28;20451;-83
2022/01/07 05:20:18;;;;;;;102.03;98.13;;;3.70;99.90;;;;;;5077864;28;21116;-83
2022/01/07 05:22:46;;;;;;;174.60;168.40;;;3.60;99.90;;;;;;5076868;28;20457;-82
2022/01/07 05:25:14;;;;;;;170.70;164.30;;;3.50;99.90;;;;;;5076336;28;20474;-82
2022/01/07 05:27:40;;;;;;;189.50;183.17;;;3.50;99.90;;;;;;5076553;28;20462;-82
2022/01/07 05:30:11;;;;;;;231.13;223.60;;;3.50;99.90;;;;;;5076658;28;20459;-82
2022/01/07 05:32:38;;;;;;;394.87;382.70;;;3.60;99.90;;;;;;5074981;28;20454;-82
2022/01/07 05:35:07;;;;;;;371.00;358.73;;;3.70;99.90;;;;;;5075646;28;20912;-82
2022/01/07 05:37:34;;;;;;;215.60;209.03;;;3.70;99.90;;;;;;5075173;28;20458;-82
2022/01/07 05:40:01;;;;;;;378.23;365.73;;;3.70;99.90;;;;;;5074198;28;20529;-82
2022/01/07 05:42:28;;;;;;;414.43;401.30;;;3.80;99.90;;;;;;5074927;28;20840;-82
2022/01/07 05:44:57;;;;;;;382.77;371.13;;;3.70;99.90;;;;;;5075479;28;20833;-81
2022/01/07 05:47:25;;;;;;;432.87;419.03;;;3.80;99.90;;;;;;5075400;28;20876;-82
2022/01/07 05:49:52;;;;;;;455.27;440.37;;;3.80;99.90;;;;;;5075036;28;20958;-82
2022/01/07 05:52:18;;;;;;;488.23;471.13;;;3.80;99.90;;;;;;5075445;28;20454;-83
2022/01/07 05:54:45;;;;;;;559.87;539.03;;;3.80;99.90;;;;;;5075451;28;20478;-81
2022/01/07 05:57:12;;;;;;;595.93;573.23;;;3.80;99.90;;;;;;5075130;28;20458;-81
2022/01/07 05:59:38;;;;;;;589.87;567.00;;;3.70;99.90;;;;;;5075004;28;20668;-81
2022/01/07 06:02:05;;;;;;;645.03;617.50;;;3.70;99.90;;;;;;5075163;28;20457;-82
2022/01/07 06:04:33;;;;;;;608.40;584.93;;;3.70;99.90;;;;;;5075357;28;20466;-81
2022/01/07 06:07:00;;;;;;;584.23;561.60;;;3.70;99.90;;;;;;5075125;28;20458;-81
2022/01/07 06:09:27;;;;;;;566.73;545.53;;;3.60;99.90;;;;;;5074974;28;20451;-81
2022/01/07 06:11:53;;;;;;;599.53;575.53;;;3.70;99.90;;;;;;5075252;28;20476;-83
2022/01/07 06:14:20;;;;;;;581.97;559.57;;;3.70;99.90;;;;;;5074969;28;20486;-81
2022/01/07 06:16:47;;;;;;;629.13;603.67;;;3.80;99.90;;;;;;5075380;28;20454;-82
2022/01/07 06:19:13;;;;;;;643.27;617.47;;;3.80;99.90;;;;;;5075060;28;20450;-82
2022/01/07 06:21:42;;;;;;;615.13;592.13;;;3.80;99.90;;;;;;5075103;28;20482;-82
2022/01/07 06:24:08;;;;;;;524.03;506.23;;;3.80;99.90;;;;;;5075143;28;20447;-82
2022/01/07 06:26:35;;;;;;;505.27;488.37;;;3.90;99.90;;;;;;5075627;28;20466;-82
2022/01/07 06:29:03;;;;;;;502.13;485.53;;;3.80;99.90;;;;;;5075937;28;20485;-82
2022/01/07 06:31:30;;;;;;;557.07;537.47;;;3.80;99.90;;;;;;5075238;28;20459;-81
2022/01/07 06:33:58;;;;;;;563.73;543.77;;;3.90;99.90;;;;;;5075134;28;20470;-82
2022/01/07 06:36:25;;;;;;;562.60;542.70;;;3.80;99.90;;;;;;5075234;28;20971;-82
2022/01/07 06:38:54;;;;;;;553.10;533.97;;;3.90;99.90;;;;;;5074947;28;20462;-82
2022/01/07 06:41:21;;;;;;;487.03;470.70;;;3.90;99.90;;;;;;5074730;28;20455;-82
2022/01/07 06:43:48;;;;;;;518.07;499.97;;;4.00;99.90;;;;;;5074814;28;20828;-82
2022/01/07 06:46:15;;;;;;;484.23;467.37;;;4.00;99.90;;;;;;5075902;28;20842;-82
2022/01/07 06:48:51;;;;;;;464.27;448.27;;;3.90;99.90;;;;;;5076132;28;20530;-84
2022/01/07 06:51:20;;;;;;;528.00;508.87;;;3.90;99.90;;;;;;5077811;28;20942;-82
2022/01/07 06:53:51;;;;;;;476.13;458.73;;;3.90;99.90;;;;;;5075728;28;20470;-82
2022/01/07 06:56:23;;;;;;;409.70;395.07;;;4.20;99.90;;;;;;5077286;28;20485;-83
2022/01/07 06:58:55;;;;;;;451.80;435.53;;;4.00;99.90;;;;;;5077041;28;21018;-82
2022/01/07 07:01:31;;;;;;;439.00;423.10;;;4.10;99.90;;;;;;5077428;28;20446;-82
2022/01/07 07:03:58;;;;;;;410.03;396.03;;;4.20;99.90;;;;;;5077621;28;20576;-83
2022/01/07 07:06:25;;;;;;;425.73;410.57;;;4.20;99.90;;;;;;5079695;28;20522;-82
2022/01/07 07:08:59;;;;;;;455.37;438.37;;;4.20;99.90;;;;;;5078141;28;20458;-84
2022/01/07 07:11:29;;;;;;;462.63;445.53;;;4.00;99.90;;;;;;5078262;28;20807;-82
2022/01/07 07:13:56;;;;;;;413.23;398.23;;;4.10;99.90;;;;;;5079375;28;20474;-83
2022/01/07 07:16:43;;;;;;;415.13;399.93;;;4.10;99.90;;;;;;5079889;28;20450;-84
2022/01/07 07:19:10;;;;;;;402.33;387.70;;;4.10;99.90;;;;;;5079363;28;20446;-83
2022/01/07 07:21:37;;;;;;;348.93;336.23;;;4.10;99.90;;;;;;5079466;28;20485;-82
2022/01/07 07:24:07;;;;;;;350.57;338.50;;;4.30;99.90;;;;;;5077815;28;20970;-84
2022/01/07 07:26:51;;;;;;;278.67;269.37;;;4.20;99.90;;;;;;5078563;28;20459;-83
2022/01/07 07:29:18;;;;;;;283.93;274.57;;;4.20;99.90;;;;;;5076274;28;20521;-82
2022/01/07 07:31:57;;;;;;;317.93;307.23;;;4.30;99.90;;;;;;5076383;28;20447;-82
2022/01/07 07:34:55;;;;;;;332.33;321.27;;;4.20;99.90;;;;;;5076170;28;20523;-82
2022/01/07 07:37:21;;;;;;;295.10;285.47;;;4.20;99.90;;;;;;5076211;28;20943;-83
2022/01/07 07:39:54;;;;;;;277.57;268.37;;;4.40;99.90;;;;;;5075902;28;20451;-82
2022/01/07 07:42:23;;;;;;;307.03;296.93;;;4.40;99.90;;;;;;5077039;28;20454;-83
2022/01/07 07:44:55;;;;;;;332.40;321.33;;;4.40;99.90;;;;;;5076318;28;20532;-82
2022/01/07 07:47:25;;;;;;;255.37;247.20;;;4.40;99.90;;;;;;5076336;28;20443;-82
2022/01/07 07:49:52;;;;;;;279.47;270.57;;;4.50;99.90;;;;;;5076164;28;20447;-83
2022/01/07 07:55:54;;;;;;;227.13;219.50;;;4.50;99.90;;;;;;5076673;28;20909;-83
2022/01/07 07:58:58;;;;;;;257.50;248.87;;;4.60;99.90;;;;;;5076951;28;20572;-84
2022/01/07 08:01:26;;;;;;;252.10;243.80;;;4.60;99.90;;;;;;5076704;28;20473;-83
2022/01/07 08:03:53;;;;;;;261.60;252.90;;;4.60;99.90;;;;;;5076565;28;20442;-81
2022/01/07 08:06:20;;;;;;;256.37;247.77;;;4.50;99.90;;;;;;5079776;28;20457;-83
2022/01/07 08:08:50;;;;;;;210.53;203.53;;;4.60;99.90;;;;;;5079698;28;20505;-82
2022/01/07 08:11:17;;;;;;;187.70;181.30;;;4.60;99.90;;;;;;5079614;28;20442;-82
2022/01/07 08:16:35;;;;;;;149.47;144.07;;;4.80;99.90;;;;;;5080111;28;20449;-83
2022/01/07 08:19:01;;;;;;;113.37;109.30;;;4.80;99.90;;;;;;5080663;28;20443;-84
2022/01/07 08:21:30;;;;;;;104.53;100.73;;;4.70;99.90;;;;;;5081259;28;20541;-83
2022/01/07 08:24:00;;;;;;;109.27;105.20;;;4.70;99.90;;;;;;5081853;28;20480;-81
2022/01/07 08:26:28;;;;;;;106.43;102.50;;;4.80;99.90;;;;;;5079499;28;20446;-83
2022/01/07 08:28:59;;;;;;;112.37;108.17;;;4.70;99.90;;;;;;5078702;28;20513;-82
2022/01/07 08:36:58;;;;;;;64.00;61.47;;;4.70;99.90;;;;;;5079593;28;20457;-83
2022/01/07 08:39:26;;;;;;;62.43;59.93;;;4.80;99.90;;;;;;5079245;28;20461;-83
2022/01/07 08:42:09;;;;;;;47.83;45.93;;;4.90;99.90;;;;;;5079821;28;20461;-83
2022/01/07 08:44:38;;;;;;;54.57;52.33;;;4.80;99.90;;;;;;5080206;28;20494;-83
2022/01/07 08:47:05;;;;;;;47.47;45.53;;;4.90;99.90;;;;;;5080622;28;20450;-85
2022/01/07 08:49:37;;;;;;;38.07;36.57;;;4.90;99.90;;;;;;5079748;28;20907;-83
2022/01/07 08:52:20;;;;;;;42.33;40.53;;;5.00;99.90;;;;;;5080205;28;20442;-83
2022/01/07 08:54:50;;;;;;;34.93;33.33;;;4.90;99.90;;;;;;5080156;28;20478;-83
2022/01/07 08:57:21;;;;;;;43.93;42.17;;;4.90;99.90;;;;;;5079027;28;20450;-83
2022/01/07 08:59:58;;;;;;;50.57;48.57;;;4.90;99.90;;;;;;5079082;28;20981;-82
2022/01/07 09:02:31;;;;;;;45.60;43.60;;;4.90;99.90;;;;;;5079316;28;20477;-83
2022/01/07 09:05:09;;;;;;;65.77;63.07;;;5.00;99.90;;;;;;5079579;28;20541;-83
2022/01/07 09:07:36;;;;;;;96.83;93.43;;;4.90;99.90;;;;;;5079379;28;20466;-83
2022/01/07 09:10:04;;;;;;;59.37;56.87;;;4.90;99.90;;;;;;5079217;28;20508;-83
2022/01/07 09:12:33;;;;;;;42.10;40.33;;;4.90;99.90;;;;;;5079195;28;20454;-83
2022/01/07 09:15:01;;;;;;;35.63;34.13;;;4.90;99.90;;;;;;5078190;28;20488;-83
2022/01/07 09:17:32;;;;;;;56.60;54.40;;;4.90;99.90;;;;;;5076849;28;20474;-83
2022/01/07 09:19:59;;;;;;;40.90;39.07;;;4.90;99.90;;;;;;5077600;28;20484;-83
2022/01/07 09:22:26;;;;;;;33.00;31.60;;;5.00;99.90;;;;;;5077855;28;20451;-83
2022/01/07 09:24:53;;;;;;;39.77;38.27;;;4.90;99.90;;;;;;5077718;28;20534;-83
2022/01/07 09:27:20;;;;;;;36.00;34.47;;;4.90;99.90;;;;;;5078019;28;20458;-82
2022/01/07 09:29:47;;;;;;;28.00;26.90;;;5.00;99.90;;;;;;5077531;28;20458;-82
2022/01/07 09:32:15;;;;;;;28.90;27.70;;;4.90;99.90;;;;;;5077086;28;20434;-83
2022/01/07 09:34:41;;;;;;;28.90;27.70;;;4.90;99.90;;;;;;5076569;28;20849;-83
2022/01/07 09:37:08;;;;;;;29.20;27.97;;;4.90;99.90;;;;;;5076947;28;20450;-82
2022/01/07 09:39:36;;;;;;;48.00;46.10;;;4.90;99.90;;;;;;5076432;28;20465;-82
2022/01/07 09:42:05;;;;;;;63.97;61.40;;;4.90;99.90;;;;;;5076438;28;20541;-82
2022/01/07 09:44:32;;;;;;;77.47;74.47;;;4.90;99.90;;;;;;5076076;28;20477;-83
2022/01/07 09:46:59;;;;;;;112.33;108.57;;;5.00;99.90;;;;;;5076726;28;20454;-83
2022/01/07 09:49:33;;;;;;;109.27;105.47;;;5.00;99.90;;;;;;5076240;28;20485;-83
2022/01/07 09:52:02;;;;;;;74.80;72.07;;;4.90;99.90;;;;;;5076533;28;20917;-82
2022/01/07 09:54:29;;;;;;;67.80;65.00;;;5.00;99.90;;;;;;5075855;28;20470;-83
2022/01/07 09:56:55;;;;;;;50.63;48.53;;;5.00;99.90;;;;;;5075978;28;20965;-82
2022/01/07 09:59:23;;;;;;;54.43;52.33;;;5.00;99.90;;;;;;5076139;28;20461;-82
2022/01/07 10:01:57;;;;;;;59.17;56.97;;;5.10;99.90;;;;;;5076834;28;20443;-82
2022/01/07 10:04:31;;;;;;;55.60;53.40;;;5.10;99.90;;;;;;5076555;28;21044;-82
2022/01/07 10:07:12;;;;;;;47.33;45.40;;;5.20;99.90;;;;;;5076176;28;20534;-82
2022/01/07 10:09:42;;;;;;;46.33;44.47;;;5.30;99.90;;;;;;5075353;28;20448;-82
2022/01/07 10:12:10;;;;;;;18.60;17.63;;;5.40;99.90;;;;;;5075877;28;20455;-82
2022/01/07 10:14:37;;;;;;;17.40;16.40;;;5.40;98.80;;;;;;5075746;28;20542;-82
2022/01/07 10:17:05;;;;;;;19.13;18.13;;;5.60;99.00;;;;;;5075989;28;20450;-82
2022/01/07 10:19:36;;;;;;;11.97;11.07;;;5.70;98.60;;;;;;5075318;28;20485;-83
2022/01/07 10:22:06;;;;;;;9.00;8.30;;;5.70;98.40;;;;;;5076102;28;20554;-82
2022/01/07 10:24:54;;;;;;;9.23;8.50;;;5.90;97.70;;;;;;5075990;28;21048;-82
2022/01/07 10:27:22;;;;;;;7.00;6.40;;;6.00;97.50;;;;;;5075716;28;20461;-82
2022/01/07 10:29:49;;;;;;;6.40;5.80;;;6.10;97.20;;;;;;5075763;28;20450;-82
2022/01/07 10:32:27;;;;;;;6.43;5.83;;;6.10;96.70;;;;;;5075969;28;20446;-82
2022/01/07 10:35:23;;;;;;;8.50;7.80;;;6.20;97.00;;;;;;5075530;28;20563;-82
2022/01/07 10:37:56;;;;;;;13.73;12.83;;;6.10;97.80;;;;;;5015147;28;20772;-82
2022/01/07 10:40:32;;;;;;;7.63;6.87;;;6.20;98.60;;;;;;5024594;28;20459;-83
2022/01/07 10:43:13;;;;;;;11.47;10.60;;;6.10;97.40;;;;;;5077659;28;20541;-82
2022/01/07 10:45:43;;;;;;;12.90;11.90;;;6.10;97.90;;;;;;5076364;28;20475;-81
2022/01/07 10:48:11;;;;;;;12.17;11.17;;;6.30;98.50;;;;;;5056667;28;20483;-82
2022/01/07 10:50:42;;;;;;;6.90;6.30;;;6.40;98.10;;;;;;5056447;28;20482;-82
2022/01/07 10:53:21;;;;;;;5.67;4.87;;;6.50;96.70;;;;;;5056403;28;20530;-82
2022/01/07 10:56:15;;;;;;;5.43;4.40;;;6.50;96.70;;;;;;5056698;28;20475;-81
2022/01/07 10:59:03;;;;;;;5.50;4.30;;;6.60;96.70;;;;;;5056490;28;20514;-83
2022/01/07 11:01:40;;;;;;;5.87;3.97;;;6.50;95.70;;;;;;5056936;28;20526;-82
2022/01/07 11:04:09;;;;;;;5.53;3.50;;;6.50;95.70;;;;;;5056616;28;20453;-82
2022/01/07 11:06:38;;;;;;;5.20;3.30;;;6.20;96.00;;;;;;5055562;28;20451;-82
2022/01/07 11:09:09;;;;;;;6.50;3.77;;;6.00;96.50;;;;;;5056029;28;20447;-80
2022/01/07 11:11:44;;;;;;;5.70;3.80;;;5.80;96.10;;;;;;5056321;28;20527;-82
2022/01/07 11:14:12;;;;;;;4.73;3.90;;;5.80;96.40;;;;;;5054824;28;20905;-83
2022/01/07 11:16:40;;;;;;;5.57;5.03;;;5.80;96.40;;;;;;5055071;28;20486;-82
2022/01/07 11:19:08;;;;;;;7.07;6.47;;;5.80;96.80;;;;;;5055371;28;20877;-84
2022/01/07 11:21:37;;;;;;;4.80;4.30;;;5.90;96.50;;;;;;5055751;28;20451;-82
2022/01/07 11:24:34;;;;;;;7.50;4.70;;;5.80;96.20;;;;;;5055779;28;20451;-83
2022/01/07 11:27:01;;;;;;;6.60;5.80;;;5.80;96.00;;;;;;5057670;28;20455;-82
2022/01/07 11:29:29;;;;;;;8.30;7.60;;;6.00;96.50;;;;;;5058563;28;20444;-82
2022/01/07 11:32:16;;;;;;;6.77;6.07;;;6.00;96.50;;;;;;5056941;28;20504;-84
2022/01/07 11:34:42;;;;;;;8.97;8.20;;;6.10;96.00;;;;;;5058346;28;20472;-83
2022/01/07 11:37:34;;;;;;;6.57;5.77;;;6.20;96.10;;;;;;5057758;28;20455;-83
2022/01/07 11:40:01;;;;;;;13.43;7.20;;;6.40;95.70;;;;;;5062228;28;20443;-84
2022/01/07 11:42:39;;;;;;;6.83;6.13;;;6.60;95.60;;;;;;5063264;28;20447;-83
2022/01/07 11:45:38;;;;;;;8.13;7.30;;;6.80;95.50;;;;;;5065510;28;20467;-82
2022/01/07 11:48:11;;;;;;;6.63;5.30;;;6.80;94.60;;;;;;5063503;28;20455;-83
2022/01/07 11:50:46;;;;;;;7.10;4.00;;;6.70;93.90;;;;;;5064667;28;20455;-83
2022/01/07 11:53:14;;;;;;;8.03;4.53;;;6.60;93.80;;;;;;5064236;28;20450;-83
2022/01/07 11:55:42;;;;;;;8.03;5.20;;;6.60;94.10;;;;;;5061954;28;20498;-83
2022/01/07 11:58:12;;;;;;;9.50;4.10;;;6.60;94.60;;;;;;5062573;28;20860;-80
2022/01/07 12:00:59;;;;;;;6.73;5.60;;;6.50;94.50;;;;;;5059901;28;20973;-82
2022/01/07 12:03:38;;;;;;;8.87;4.90;;;6.40;95.10;;;;;;5064103;28;20486;-83
2022/01/07 12:06:44;;;;;;;8.03;5.40;;;6.40;94.90;;;;;;5063455;28;20474;-83
2022/01/07 12:09:19;;;;;;;10.43;5.80;;;6.50;95.40;;;;;;5066246;28;20509;-83
2022/01/07 12:11:57;;;;;;;7.90;6.50;;;6.50;95.20;;;;;;5064563;28;20546;-85
2022/01/07 12:14:25;;;;;;;9.90;5.10;;;6.50;95.50;;;;;;5064382;28;20549;-83
2022/01/07 12:16:54;;;;;;;13.23;7.27;;;6.60;94.60;;;;;;5064481;28;20483;-81
2022/01/07 12:20:21;;;;;;;9.10;5.80;;;6.60;94.90;;;;;;5063115;28;20459;-83
2022/01/07 12:22:51;;;;;;;12.17;5.63;;;6.70;94.50;;;;;;5064791;28;20458;-83
2022/01/07 12:25:21;;;;;;;10.23;5.00;;;6.60;94.00;;;;;;5064428;28;20498;-84
2022/01/07 12:27:49;;;;;;;12.27;7.43;;;6.50;93.70;;;;;;5065536;28;20846;-84
2022/01/07 12:30:19;;;;;;;13.20;7.67;;;6.60;94.90;;;;;;5063556;28;20478;-83
2022/01/07 12:32:52;;;;;;;15.13;6.40;;;6.60;94.40;;;;;;5065454;28;21056;-84
2022/01/07 12:35:19;;;;;;;15.10;6.00;;;6.70;94.40;;;;;;5064018;28;20478;-83
2022/01/07 12:37:49;;;;;;;12.37;5.90;;;6.80;94.00;;;;;;5065121;28;20458;-83
2022/01/07 12:40:15;;;;;;;7.10;4.97;;;6.80;94.00;;;;;;5063690;28;20455;-84
2022/01/07 12:42:45;;;;;;;14.40;4.80;;;6.70;93.50;;;;;;5063570;28;20993;-84
2022/01/07 12:45:17;;;;;;;12.97;5.50;;;6.70;93.90;;;;;;5064550;28;20467;-84
2022/01/07 12:47:46;;;;;;;5.90;4.07;;;6.60;93.40;;;;;;5063772;28;20522;-83
2022/01/07 12:50:14;;;;;;;12.43;5.00;;;6.50;93.40;;;;;;5064807;28;20451;-84
2022/01/07 12:52:43;;;;;;;8.87;5.03;;;6.50;93.80;;;;;;5084519;28;20986;-85
2022/01/07 12:55:13;;;;;;;9.20;5.20;;;6.40;93.90;;;;;;5104395;28;20477;-84
2022/01/07 12:57:42;;;;;;;8.57;5.23;;;6.40;94.10;;;;;;5104674;28;20446;-83